リール の空港の天気 - METARとTAF

リール空港 ( LFQQ / LIL ) - フランス リール
飛行場実況気象(Metar)
観測時間09/22 18:30 CEST (09/22 16:30 UTC)
風向・風速西南西 2m/s
視程10km以上
天気現象
なし
気温25℃
湿度36%
気圧1007hPa
METARLFQQ 221630Z AUTO 24004KT 190V270 CAVOK 25/09 Q1007 NOSIG
過去の天気等 Google飛行場航空写真 Wunderground天気予報

過去48時間のMETAR

飛行場予報(TAF)
発表時間: 9/22 13:00 CEST (9/22 11:00 UTC)
予報対象時間: 22日14時 CEST ~ 23日20時 CEST
風向・風速不定 1m/s
視程10km以上
なし
23日1時 CEST ~ 23日4時 CEST に 確率 40% で一時的に
全天の8割程度の雲 雲底高度 370m
23日8時 CEST ~ 23日10時 CEST に徐々に
風向・風速南南西 5m/s
全天の8割程度の雲 雲底高度 370m
23日10時 CEST ~ 23日12時 CEST に徐々に
全天の8割程度の雲 雲底高度 760m
23日10時 CEST ~ 23日14時 CEST に一時的に
視程4000m
天気現象しゅう雨
全天の8割程度の塔状積雲 雲底高度 760m
TAF LFQQ 221100Z 2212/2318 VRB02KT CAVOK
PROB40 TEMPO 2223/2302 BKN012
BECMG 2306/2308 20010KT BKN012
BECMG 2308/2310 BKN025
TEMPO 2308/2312 4000 SHRA BKN025TCU